sensor_id;sensor_type;location;lat;lon;timestamp;pressure;altitude;pressure_sealevel;temperature;humidity
41230;BME280;26964;50.428;19.218;2024-02-26T00:00:24;1009.0;;;3.2;66.0
41230;BME280;26964;50.428;19.218;2024-02-26T00:01:25;1009.1;;;3.2;66.0
41230;BME280;26964;50.428;19.218;2024-02-26T00:02:24;1009.1;;;3.2;66.0
41230;BME280;26964;50.428;19.218;2024-02-26T00:03:24;1009.0;;;3.2;66.1
41230;BME280;26964;50.428;19.218;2024-02-26T00:04:27;1009.0;;;3.2;66.1
41230;BME280;26964;50.428;19.218;2024-02-26T00:05:25;1009.0;;;3.2;66.2
41230;BME280;26964;50.428;19.218;2024-02-26T00:06:25;1009.0;;;3.1;66.2
41230;BME280;26964;50.428;19.218;2024-02-26T00:07:24;1009.0;;;3.1;66.2
41230;BME280;26964;50.428;19.218;2024-02-26T00:08:24;1009.0;;;3.1;66.2
41230;BME280;26964;50.428;19.218;2024-02-26T00:09:24;1009.0;;;3.1;66.2
41230;BME280;26964;50.428;19.218;2024-02-26T00:10:25;1009.0;;;3.1;66.2
41230;BME280;26964;50.428;19.218;2024-02-26T00:11:24;1009.0;;;3.1;66.2
41230;BME280;26964;50.428;19.218;2024-02-26T00:12:24;1009.0;;;3.1;66.3
41230;BME280;26964;50.428;19.218;2024-02-26T00:13:25;1009.0;;;3.0;66.3
41230;BME280;26964;50.428;19.218;2024-02-26T00:14:24;1009.0;;;3.0;66.3
41230;BME280;26964;50.428;19.218;2024-02-26T00:15:27;1008.9;;;3.0;66.3
41230;BME280;26964;50.428;19.218;2024-02-26T00:16:27;1008.9;;;3.0;66.3
41230;BME280;26964;50.428;19.218;2024-02-26T00:17:24;1008.9;;;3.0;66.4
41230;BME280;26964;50.428;19.218;2024-02-26T00:18:24;1008.9;;;3.0;66.4
41230;BME280;26964;50.428;19.218;2024-02-26T00:19:24;1008.9;;;3.0;66.4
41230;BME280;26964;50.428;19.218;2024-02-26T00:20:24;1008.9;;;3.0;66.4
41230;BME280;26964;50.428;19.218;2024-02-26T00:21:24;1008.9;;;3.0;66.4
41230;BME280;26964;50.428;19.218;2024-02-26T00:22:24;1008.9;;;3.0;66.4
41230;BME280;26964;50.428;19.218;2024-02-26T00:23:24;1008.8;;;3.0;66.5
41230;BME280;26964;50.428;19.218;2024-02-26T00:24:25;1008.8;;;3.0;66.5
41230;BME280;26964;50.428;19.218;2024-02-26T00:25:24;1008.9;;;3.0;66.5
41230;BME280;26964;50.428;19.218;2024-02-26T00:26:24;1008.9;;;3.0;66.5
41230;BME280;26964;50.428;19.218;2024-02-26T00:27:24;1008.9;;;3.0;66.6
41230;BME280;26964;50.428;19.218;2024-02-26T00:28:24;1008.9;;;3.0;66.6
41230;BME280;26964;50.428;19.218;2024-02-26T00:29:24;1008.8;;;3.0;66.6
41230;BME280;26964;50.428;19.218;2024-02-26T00:30:24;1008.8;;;3.0;66.6
41230;BME280;26964;50.428;19.218;2024-02-26T00:31:24;1008.8;;;3.0;66.6
41230;BME280;26964;50.428;19.218;2024-02-26T00:32:24;1008.8;;;3.0;66.6
41230;BME280;26964;50.428;19.218;2024-02-26T00:33:25;1008.8;;;3.0;66.7
41230;BME280;26964;50.428;19.218;2024-02-26T00:34:24;1008.8;;;3.0;66.8
41230;BME280;26964;50.428;19.218;2024-02-26T00:35:24;1008.9;;;3.0;66.7
41230;BME280;26964;50.428;19.218;2024-02-26T00:36:24;1008.8;;;3.0;66.7
41230;BME280;26964;50.428;19.218;2024-02-26T00:37:27;1008.9;;;3.0;66.7
41230;BME280;26964;50.428;19.218;2024-02-26T00:38:24;1008.9;;;3.0;66.7
41230;BME280;26964;50.428;19.218;2024-02-26T00:39:24;1008.9;;;3.0;66.7
41230;BME280;26964;50.428;19.218;2024-02-26T00:40:24;1008.9;;;2.9;66.7
41230;BME280;26964;50.428;19.218;2024-02-26T00:41:24;1008.9;;;2.9;66.7
41230;BME280;26964;50.428;19.218;2024-02-26T00:42:24;1008.9;;;2.9;66.7
41230;BME280;26964;50.428;19.218;2024-02-26T00:43:24;1008.9;;;2.9;66.7
41230;BME280;26964;50.428;19.218;2024-02-26T00:44:24;1008.9;;;2.9;66.7
41230;BME280;26964;50.428;19.218;2024-02-26T00:45:24;1009.0;;;2.9;66.7
41230;BME280;26964;50.428;19.218;2024-02-26T00:46:24;1008.9;;;2.9;66.7
41230;BME280;26964;50.428;19.218;2024-02-26T00:47:24;1009.0;;;2.9;66.8
41230;BME280;26964;50.428;19.218;2024-02-26T00:48:24;1008.9;;;2.9;66.8
41230;BME280;26964;50.428;19.218;2024-02-26T00:49:24;1008.9;;;2.8;66.8
41230;BME280;26964;50.428;19.218;2024-02-26T00:50:24;1008.9;;;2.8;66.8
41230;BME280;26964;50.428;19.218;2024-02-26T00:51:24;1008.9;;;2.8;66.8
41230;BME280;26964;50.428;19.218;2024-02-26T00:52:24;1008.9;;;2.8;66.8
41230;BME280;26964;50.428;19.218;2024-02-26T00:53:24;1008.9;;;2.8;66.9
41230;BME280;26964;50.428;19.218;2024-02-26T00:54:23;1008.9;;;2.8;66.9
41230;BME280;26964;50.428;19.218;2024-02-26T00:55:24;1008.9;;;2.8;66.9
41230;BME280;26964;50.428;19.218;2024-02-26T00:56:25;1008.9;;;2.8;66.9
41230;BME280;26964;50.428;19.218;2024-02-26T00:57:25;1008.9;;;2.8;66.9
41230;BME280;26964;50.428;19.218;2024-02-26T00:58:28;1008.9;;;2.8;67.0
41230;BME280;26964;50.428;19.218;2024-02-26T00:59:24;1008.9;;;2.8;67.0
41230;BME280;26964;50.428;19.218;2024-02-26T01:00:24;1008.9;;;2.7;67.0
41230;BME280;26964;50.428;19.218;2024-02-26T01:01:24;1009.0;;;2.7;67.0
41230;BME280;26964;50.428;19.218;2024-02-26T01:02:24;1009.0;;;2.7;67.0
41230;BME280;26964;50.428;19.218;2024-02-26T01:03:25;1009.0;;;2.7;67.0
41230;BME280;26964;50.428;19.218;2024-02-26T01:04:25;1009.0;;;2.7;67.0
41230;BME280;26964;50.428;19.218;2024-02-26T01:05:24;1009.0;;;2.7;67.0
41230;BME280;26964;50.428;19.218;2024-02-26T01:06:24;1009.0;;;2.7;67.0
41230;BME280;26964;50.428;19.218;2024-02-26T01:07:24;1009.0;;;2.7;67.0
41230;BME280;26964;50.428;19.218;2024-02-26T01:08:24;1008.9;;;2.7;67.1
41230;BME280;26964;50.428;19.218;2024-02-26T01:09:24;1008.9;;;2.7;67.1
41230;BME280;26964;50.428;19.218;2024-02-26T01:10:24;1009.0;;;2.7;67.1
41230;BME280;26964;50.428;19.218;2024-02-26T01:11:24;1009.0;;;2.7;67.1
41230;BME280;26964;50.428;19.218;2024-02-26T01:12:24;1008.9;;;2.6;67.2
41230;BME280;26964;50.428;19.218;2024-02-26T01:13:24;1008.9;;;2.6;67.2
41230;BME280;26964;50.428;19.218;2024-02-26T01:14:24;1008.9;;;2.6;67.2
41230;BME280;26964;50.428;19.218;2024-02-26T01:15:25;1008.9;;;2.6;67.2
41230;BME280;26964;50.428;19.218;2024-02-26T01:16:24;1009.0;;;2.6;67.2
41230;BME280;26964;50.428;19.218;2024-02-26T01:17:24;1008.9;;;2.6;67.2
41230;BME280;26964;50.428;19.218;2024-02-26T01:18:26;1008.9;;;2.6;67.3
41230;BME280;26964;50.428;19.218;2024-02-26T01:19:29;1008.9;;;2.6;67.3
41230;BME280;26964;50.428;19.218;2024-02-26T01:20:24;1008.9;;;2.6;67.4
41230;BME280;26964;50.428;19.218;2024-02-26T01:21:24;1008.9;;;2.6;67.4
41230;BME280;26964;50.428;19.218;2024-02-26T01:22:24;1008.9;;;2.6;67.4
41230;BME280;26964;50.428;19.218;2024-02-26T01:23:24;1008.9;;;2.6;67.5
41230;BME280;26964;50.428;19.218;2024-02-26T01:24:24;1008.9;;;2.7;67.6
41230;BME280;26964;50.428;19.218;2024-02-26T01:25:23;1008.8;;;2.7;67.7
41230;BME280;26964;50.428;19.218;2024-02-26T01:26:23;1008.9;;;2.7;67.7
41230;BME280;26964;50.428;19.218;2024-02-26T01:27:24;1008.8;;;2.7;67.7
41230;BME280;26964;50.428;19.218;2024-02-26T01:28:24;1008.9;;;2.7;67.8
41230;BME280;26964;50.428;19.218;2024-02-26T01:29:24;1008.8;;;2.7;67.8
41230;BME280;26964;50.428;19.218;2024-02-26T01:30:24;1008.8;;;2.7;67.9
41230;BME280;26964;50.428;19.218;2024-02-26T01:31:24;1008.9;;;2.8;67.9
41230;BME280;26964;50.428;19.218;2024-02-26T01:32:23;1008.9;;;2.8;67.8
41230;BME280;26964;50.428;19.218;2024-02-26T01:33:26;1008.8;;;2.8;67.8
41230;BME280;26964;50.428;19.218;2024-02-26T01:34:24;1008.8;;;2.8;67.8
41230;BME280;26964;50.428;19.218;2024-02-26T01:35:24;1008.9;;;2.8;67.8
41230;BME280;26964;50.428;19.218;2024-02-26T01:36:23;1008.8;;;2.9;67.8
41230;BME280;26964;50.428;19.218;2024-02-26T01:37:24;1008.8;;;2.9;67.8
41230;BME280;26964;50.428;19.218;2024-02-26T01:38:24;1008.8;;;2.9;67.8
41230;BME280;26964;50.428;19.218;2024-02-26T01:39:25;1008.8;;;2.9;67.8
41230;BME280;26964;50.428;19.218;2024-02-26T01:40:28;1008.8;;;2.9;67.8
41230;BME280;26964;50.428;19.218;2024-02-26T01:41:24;1008.8;;;2.9;67.8
41230;BME280;26964;50.428;19.218;2024-02-26T01:42:24;1008.7;;;2.9;67.8
41230;BME280;26964;50.428;19.218;2024-02-26T01:43:24;1008.8;;;2.9;67.9
41230;BME280;26964;50.428;19.218;2024-02-26T01:44:27;1008.8;;;2.9;67.9
41230;BME280;26964;50.428;19.218;2024-02-26T01:45:24;1008.8;;;2.9;67.9
41230;BME280;26964;50.428;19.218;2024-02-26T01:46:23;1008.9;;;2.9;67.9
41230;BME280;26964;50.428;19.218;2024-02-26T01:47:24;1008.8;;;2.9;67.9
41230;BME280;26964;50.428;19.218;2024-02-26T01:48:23;1008.8;;;2.9;67.9
41230;BME280;26964;50.428;19.218;2024-02-26T01:49:23;1008.7;;;2.9;67.9
41230;BME280;26964;50.428;19.218;2024-02-26T01:50:24;1008.8;;;2.9;68.0
41230;BME280;26964;50.428;19.218;2024-02-26T01:51:24;1008.7;;;2.9;68.0
41230;BME280;26964;50.428;19.218;2024-02-26T01:52:24;1008.8;;;2.9;68.0
41230;BME280;26964;50.428;19.218;2024-02-26T01:53:24;1008.8;;;2.9;68.1
41230;BME280;26964;50.428;19.218;2024-02-26T01:54:24;1008.8;;;2.9;68.2
41230;BME280;26964;50.428;19.218;2024-02-26T01:55:24;1008.8;;;3.0;68.2
41230;BME280;26964;50.428;19.218;2024-02-26T01:56:24;1008.8;;;3.0;68.1
41230;BME280;26964;50.428;19.218;2024-02-26T01:57:24;1008.8;;;3.0;68.2
41230;BME280;26964;50.428;19.218;2024-02-26T01:58:24;1008.8;;;3.0;68.2
41230;BME280;26964;50.428;19.218;2024-02-26T01:59:23;1008.8;;;3.0;68.1
41230;BME280;26964;50.428;19.218;2024-02-26T02:00:25;1008.8;;;3.0;68.0
41230;BME280;26964;50.428;19.218;2024-02-26T02:01:29;1008.8;;;3.0;67.8
41230;BME280;26964;50.428;19.218;2024-02-26T02:02:24;1008.9;;;2.9;67.8
41230;BME280;26964;50.428;19.218;2024-02-26T02:03:24;1008.9;;;2.9;67.8
41230;BME280;26964;50.428;19.218;2024-02-26T02:04:24;1008.8;;;2.9;67.8
41230;BME280;26964;50.428;19.218;2024-02-26T02:05:24;1008.9;;;2.9;67.9
41230;BME280;26964;50.428;19.218;2024-02-26T02:06:24;1008.8;;;2.9;67.9
41230;BME280;26964;50.428;19.218;2024-02-26T02:07:24;1008.8;;;2.9;67.9
41230;BME280;26964;50.428;19.218;2024-02-26T02:08:24;1008.9;;;2.8;68.0
41230;BME280;26964;50.428;19.218;2024-02-26T02:09:24;1008.9;;;2.8;68.0
41230;BME280;26964;50.428;19.218;2024-02-26T02:10:25;1008.9;;;2.8;68.0
41230;BME280;26964;50.428;19.218;2024-02-26T02:11:24;1008.9;;;2.8;68.0
41230;BME280;26964;50.428;19.218;2024-02-26T02:12:24;1008.9;;;2.8;68.0
41230;BME280;26964;50.428;19.218;2024-02-26T02:13:23;1008.9;;;2.8;68.1
41230;BME280;26964;50.428;19.218;2024-02-26T02:14:25;1008.8;;;2.8;68.1
41230;BME280;26964;50.428;19.218;2024-02-26T02:15:24;1008.9;;;2.8;68.1
41230;BME280;26964;50.428;19.218;2024-02-26T02:16:24;1009.0;;;2.8;68.1
41230;BME280;26964;50.428;19.218;2024-02-26T02:17:23;1008.9;;;2.8;68.1
41230;BME280;26964;50.428;19.218;2024-02-26T02:18:24;1008.8;;;2.8;68.1
41230;BME280;26964;50.428;19.218;2024-02-26T02:19:24;1008.8;;;2.8;68.1
41230;BME280;26964;50.428;19.218;2024-02-26T02:20:24;1008.8;;;2.7;68.2
41230;BME280;26964;50.428;19.218;2024-02-26T02:21:26;1008.7;;;2.7;68.2
41230;BME280;26964;50.428;19.218;2024-02-26T02:22:24;1008.8;;;2.7;68.2
41230;BME280;26964;50.428;19.218;2024-02-26T02:23:25;1008.8;;;2.7;68.2
41230;BME280;26964;50.428;19.218;2024-02-26T02:24:24;1008.8;;;2.7;68.2
41230;BME280;26964;50.428;19.218;2024-02-26T02:25:24;1008.8;;;2.7;68.3
41230;BME280;26964;50.428;19.218;2024-02-26T02:26:23;1008.8;;;2.7;68.3
41230;BME280;26964;50.428;19.218;2024-02-26T02:27:23;1008.8;;;2.7;68.4
41230;BME280;26964;50.428;19.218;2024-02-26T02:28:25;1008.8;;;2.7;68.4
41230;BME280;26964;50.428;19.218;2024-02-26T02:29:23;1008.8;;;2.7;68.5
41230;BME280;26964;50.428;19.218;2024-02-26T02:30:25;1008.8;;;2.7;68.5
41230;BME280;26964;50.428;19.218;2024-02-26T02:31:23;1008.8;;;2.7;68.5
41230;BME280;26964;50.428;19.218;2024-02-26T02:32:24;1008.9;;;2.7;68.5
41230;BME280;26964;50.428;19.218;2024-02-26T02:33:25;1008.9;;;2.7;68.5
41230;BME280;26964;50.428;19.218;2024-02-26T02:34:23;1008.8;;;2.7;68.5
41230;BME280;26964;50.428;19.218;2024-02-26T02:35:24;1008.8;;;2.7;68.6
41230;BME280;26964;50.428;19.218;2024-02-26T02:36:24;1008.8;;;2.7;68.6
41230;BME280;26964;50.428;19.218;2024-02-26T02:37:24;1008.7;;;2.7;68.6
41230;BME280;26964;50.428;19.218;2024-02-26T02:38:24;1008.8;;;2.7;68.6
41230;BME280;26964;50.428;19.218;2024-02-26T02:39:24;1008.8;;;2.7;68.7
41230;BME280;26964;50.428;19.218;2024-02-26T02:40:24;1008.8;;;2.7;68.7
41230;BME280;26964;50.428;19.218;2024-02-26T02:41:24;1008.7;;;2.7;68.7
41230;BME280;26964;50.428;19.218;2024-02-26T02:42:26;1008.8;;;2.7;68.8
41230;BME280;26964;50.428;19.218;2024-02-26T02:43:24;1008.8;;;2.7;68.8
41230;BME280;26964;50.428;19.218;2024-02-26T02:44:23;1008.8;;;2.7;68.9
41230;BME280;26964;50.428;19.218;2024-02-26T02:45:24;1008.8;;;2.7;68.9
41230;BME280;26964;50.428;19.218;2024-02-26T02:46:24;1008.7;;;2.7;68.8
41230;BME280;26964;50.428;19.218;2024-02-26T02:47:24;1008.8;;;2.7;68.8
41230;BME280;26964;50.428;19.218;2024-02-26T02:48:24;1008.7;;;2.7;68.8
41230;BME280;26964;50.428;19.218;2024-02-26T02:49:24;1008.7;;;2.7;68.8
41230;BME280;26964;50.428;19.218;2024-02-26T02:50:23;1008.7;;;2.7;68.9
41230;BME280;26964;50.428;19.218;2024-02-26T02:51:24;1008.7;;;2.7;68.9
41230;BME280;26964;50.428;19.218;2024-02-26T02:52:24;1008.7;;;2.7;68.9
41230;BME280;26964;50.428;19.218;2024-02-26T02:53:24;1008.6;;;2.7;68.9
41230;BME280;26964;50.428;19.218;2024-02-26T02:54:24;1008.7;;;2.7;68.8
41230;BME280;26964;50.428;19.218;2024-02-26T02:55:24;1008.7;;;2.7;68.8
41230;BME280;26964;50.428;19.218;2024-02-26T02:56:24;1008.7;;;2.7;68.8
41230;BME280;26964;50.428;19.218;2024-02-26T02:57:24;1008.7;;;2.7;68.8
41230;BME280;26964;50.428;19.218;2024-02-26T02:58:23;1008.7;;;2.7;68.8
41230;BME280;26964;50.428;19.218;2024-02-26T02:59:24;1008.7;;;2.7;68.8
41230;BME280;26964;50.428;19.218;2024-02-26T03:00:24;1008.7;;;2.7;68.8
41230;BME280;26964;50.428;19.218;2024-02-26T03:01:23;1008.7;;;2.7;68.8
41230;BME280;26964;50.428;19.218;2024-02-26T03:02:24;1008.7;;;2.7;68.9
41230;BME280;26964;50.428;19.218;2024-02-26T03:03:26;1008.8;;;2.7;68.9
41230;BME280;26964;50.428;19.218;2024-02-26T03:04:24;1008.7;;;2.7;68.9
41230;BME280;26964;50.428;19.218;2024-02-26T03:05:24;1008.8;;;2.7;68.9
41230;BME280;26964;50.428;19.218;2024-02-26T03:06:24;1008.7;;;2.7;69.0
41230;BME280;26964;50.428;19.218;2024-02-26T03:07:23;1008.8;;;2.7;69.0
41230;BME280;26964;50.428;19.218;2024-02-26T03:08:23;1008.7;;;2.7;69.0
41230;BME280;26964;50.428;19.218;2024-02-26T03:09:24;1008.8;;;2.7;69.0
41230;BME280;26964;50.428;19.218;2024-02-26T03:10:23;1008.8;;;2.7;68.9
41230;BME280;26964;50.428;19.218;2024-02-26T03:11:23;1008.8;;;2.6;68.9
41230;BME280;26964;50.428;19.218;2024-02-26T03:12:23;1008.7;;;2.6;68.8
41230;BME280;26964;50.428;19.218;2024-02-26T03:13:23;1008.8;;;2.6;68.8
41230;BME280;26964;50.428;19.218;2024-02-26T03:14:23;1008.7;;;2.6;68.8
41230;BME280;26964;50.428;19.218;2024-02-26T03:15:24;1008.7;;;2.5;68.8
41230;BME280;26964;50.428;19.218;2024-02-26T03:16:24;1008.7;;;2.5;68.8
41230;BME280;26964;50.428;19.218;2024-02-26T03:17:24;1008.7;;;2.5;68.8
41230;BME280;26964;50.428;19.218;2024-02-26T03:18:24;1008.7;;;2.5;68.7
41230;BME280;26964;50.428;19.218;2024-02-26T03:19:24;1008.6;;;2.4;68.7
41230;BME280;26964;50.428;19.218;2024-02-26T03:20:24;1008.6;;;2.4;68.6
41230;BME280;26964;50.428;19.218;2024-02-26T03:21:24;1008.6;;;2.3;68.6
41230;BME280;26964;50.428;19.218;2024-02-26T03:22:24;1008.6;;;2.3;68.6
41230;BME280;26964;50.428;19.218;2024-02-26T03:23:24;1008.6;;;2.3;68.6
41230;BME280;26964;50.428;19.218;2024-02-26T03:24:26;1008.6;;;2.2;68.7
41230;BME280;26964;50.428;19.218;2024-02-26T03:25:24;1008.7;;;2.2;68.8
41230;BME280;26964;50.428;19.218;2024-02-26T03:26:24;1008.7;;;2.1;68.8
41230;BME280;26964;50.428;19.218;2024-02-26T03:27:24;1008.6;;;2.1;68.8
41230;BME280;26964;50.428;19.218;2024-02-26T03:28:24;1008.6;;;2.1;68.9
41230;BME280;26964;50.428;19.218;2024-02-26T03:29:23;1008.6;;;2.0;68.9
41230;BME280;26964;50.428;19.218;2024-02-26T03:30:24;1008.7;;;2.0;69.0
41230;BME280;26964;50.428;19.218;2024-02-26T03:31:24;1008.6;;;2.0;69.0
41230;BME280;26964;50.428;19.218;2024-02-26T03:32:24;1008.7;;;1.9;69.0
41230;BME280;26964;50.428;19.218;2024-02-26T03:33:24;1008.7;;;1.9;69.1
41230;BME280;26964;50.428;19.218;2024-02-26T03:34:24;1008.6;;;1.9;69.1
41230;BME280;26964;50.428;19.218;2024-02-26T03:35:24;1008.8;;;1.9;69.1
41230;BME280;26964;50.428;19.218;2024-02-26T03:36:24;1008.7;;;1.9;69.2
41230;BME280;26964;50.428;19.218;2024-02-26T03:37:24;1008.6;;;1.9;69.2
41230;BME280;26964;50.428;19.218;2024-02-26T03:38:24;1008.7;;;1.9;69.2
41230;BME280;26964;50.428;19.218;2024-02-26T03:39:24;1008.7;;;1.9;69.2
41230;BME280;26964;50.428;19.218;2024-02-26T03:40:24;1008.7;;;1.9;69.2
41230;BME280;26964;50.428;19.218;2024-02-26T03:41:24;1008.7;;;1.9;69.3
41230;BME280;26964;50.428;19.218;2024-02-26T03:42:23;1008.7;;;1.9;69.3
41230;BME280;26964;50.428;19.218;2024-02-26T03:43:24;1008.6;;;1.8;69.3
41230;BME280;26964;50.428;19.218;2024-02-26T03:44:23;1008.7;;;1.8;69.4
41230;BME280;26964;50.428;19.218;2024-02-26T03:45:27;1008.5;;;1.8;69.4
41230;BME280;26964;50.428;19.218;2024-02-26T03:46:24;1008.6;;;1.9;69.4
41230;BME280;26964;50.428;19.218;2024-02-26T03:47:24;1008.5;;;1.9;69.4
41230;BME280;26964;50.428;19.218;2024-02-26T03:48:24;1008.5;;;1.8;69.6
41230;BME280;26964;50.428;19.218;2024-02-26T03:49:24;1008.5;;;1.9;69.6
41230;BME280;26964;50.428;19.218;2024-02-26T03:50:24;1008.6;;;1.9;69.6
41230;BME280;26964;50.428;19.218;2024-02-26T03:51:24;1008.6;;;1.9;69.6
41230;BME280;26964;50.428;19.218;2024-02-26T03:52:24;1008.5;;;1.9;69.6
41230;BME280;26964;50.428;19.218;2024-02-26T03:53:24;1008.5;;;1.9;69.6
41230;BME280;26964;50.428;19.218;2024-02-26T03:54:24;1008.5;;;1.9;69.6
41230;BME280;26964;50.428;19.218;2024-02-26T03:55:24;1008.5;;;1.9;69.7
41230;BME280;26964;50.428;19.218;2024-02-26T03:56:23;1008.5;;;1.9;69.7
41230;BME280;26964;50.428;19.218;2024-02-26T03:57:24;1008.6;;;1.9;69.7
41230;BME280;26964;50.428;19.218;2024-02-26T03:58:24;1008.6;;;1.9;69.7
41230;BME280;26964;50.428;19.218;2024-02-26T03:59:23;1008.6;;;1.9;69.7
41230;BME280;26964;50.428;19.218;2024-02-26T04:00:24;1008.5;;;1.9;69.7
41230;BME280;26964;50.428;19.218;2024-02-26T04:01:24;1008.5;;;1.9;69.7
41230;BME280;26964;50.428;19.218;2024-02-26T04:02:24;1008.5;;;1.9;69.7
41230;BME280;26964;50.428;19.218;2024-02-26T04:03:24;1008.6;;;1.9;69.7
41230;BME280;26964;50.428;19.218;2024-02-26T04:04:24;1008.5;;;1.9;69.6
41230;BME280;26964;50.428;19.218;2024-02-26T04:05:24;1008.6;;;1.9;69.7
41230;BME280;26964;50.428;19.218;2024-02-26T04:06:26;1008.5;;;1.9;69.7
41230;BME280;26964;50.428;19.218;2024-02-26T04:07:23;1008.5;;;1.9;69.7
41230;BME280;26964;50.428;19.218;2024-02-26T04:08:24;1008.6;;;1.9;69.7
41230;BME280;26964;50.428;19.218;2024-02-26T04:09:23;1008.5;;;1.9;69.8
41230;BME280;26964;50.428;19.218;2024-02-26T04:10:23;1008.4;;;1.9;69.8
41230;BME280;26964;50.428;19.218;2024-02-26T04:11:24;1008.4;;;1.9;69.8
41230;BME280;26964;50.428;19.218;2024-02-26T04:12:24;1008.5;;;1.9;69.9
41230;BME280;26964;50.428;19.218;2024-02-26T04:13:25;1008.5;;;1.9;69.9
41230;BME280;26964;50.428;19.218;2024-02-26T04:14:24;1008.5;;;1.9;70.0
41230;BME280;26964;50.428;19.218;2024-02-26T04:15:24;1008.5;;;1.9;70.0
41230;BME280;26964;50.428;19.218;2024-02-26T04:16:24;1008.5;;;1.9;70.0
41230;BME280;26964;50.428;19.218;2024-02-26T04:17:23;1008.5;;;1.9;70.0
41230;BME280;26964;50.428;19.218;2024-02-26T04:18:24;1008.5;;;1.9;69.9
41230;BME280;26964;50.428;19.218;2024-02-26T04:19:24;1008.4;;;1.9;69.9
41230;BME280;26964;50.428;19.218;2024-02-26T04:20:24;1008.4;;;1.9;69.9
41230;BME280;26964;50.428;19.218;2024-02-26T04:21:24;1008.4;;;1.9;69.8
41230;BME280;26964;50.428;19.218;2024-02-26T04:22:24;1008.4;;;1.8;69.8
41230;BME280;26964;50.428;19.218;2024-02-26T04:23:24;1008.4;;;1.8;69.8
41230;BME280;26964;50.428;19.218;2024-02-26T04:24:24;1008.5;;;1.8;69.9
41230;BME280;26964;50.428;19.218;2024-02-26T04:25:24;1008.4;;;1.8;69.9
41230;BME280;26964;50.428;19.218;2024-02-26T04:26:24;1008.5;;;1.8;69.8
41230;BME280;26964;50.428;19.218;2024-02-26T04:27:27;1008.4;;;1.8;69.8
41230;BME280;26964;50.428;19.218;2024-02-26T04:28:23;1008.4;;;1.8;69.8
41230;BME280;26964;50.428;19.218;2024-02-26T04:29:24;1008.3;;;1.8;69.8
41230;BME280;26964;50.428;19.218;2024-02-26T04:30:23;1008.4;;;1.7;69.8
41230;BME280;26964;50.428;19.218;2024-02-26T04:31:24;1008.4;;;1.7;69.8
41230;BME280;26964;50.428;19.218;2024-02-26T04:32:24;1008.3;;;1.7;69.8
41230;BME280;26964;50.428;19.218;2024-02-26T04:33:24;1008.3;;;1.7;69.8
41230;BME280;26964;50.428;19.218;2024-02-26T04:34:24;1008.3;;;1.7;69.9
41230;BME280;26964;50.428;19.218;2024-02-26T04:35:24;1008.4;;;1.7;69.9
41230;BME280;26964;50.428;19.218;2024-02-26T04:36:23;1008.3;;;1.7;69.8
41230;BME280;26964;50.428;19.218;2024-02-26T04:37:23;1008.3;;;1.6;69.8
41230;BME280;26964;50.428;19.218;2024-02-26T04:38:24;1008.3;;;1.6;69.8
41230;BME280;26964;50.428;19.218;2024-02-26T04:39:23;1008.3;;;1.6;69.8
41230;BME280;26964;50.428;19.218;2024-02-26T04:40:23;1008.2;;;1.5;69.8
41230;BME280;26964;50.428;19.218;2024-02-26T04:41:24;1008.3;;;1.5;69.8
41230;BME280;26964;50.428;19.218;2024-02-26T04:42:24;1008.3;;;1.5;69.8
41230;BME280;26964;50.428;19.218;2024-02-26T04:43:23;1008.3;;;1.5;69.9
41230;BME280;26964;50.428;19.218;2024-02-26T04:44:24;1008.3;;;1.5;70.0
41230;BME280;26964;50.428;19.218;2024-02-26T04:45:24;1008.3;;;1.5;70.0
41230;BME280;26964;50.428;19.218;2024-02-26T04:46:24;1008.3;;;1.5;70.0
41230;BME280;26964;50.428;19.218;2024-02-26T04:47:24;1008.3;;;1.5;70.1
41230;BME280;26964;50.428;19.218;2024-02-26T04:48:23;1008.3;;;1.5;70.1
41230;BME280;26964;50.428;19.218;2024-02-26T04:49:24;1008.3;;;1.5;70.1
41230;BME280;26964;50.428;19.218;2024-02-26T04:50:23;1008.3;;;1.5;70.2
41230;BME280;26964;50.428;19.218;2024-02-26T04:51:24;1008.3;;;1.4;70.2
41230;BME280;26964;50.428;19.218;2024-02-26T04:52:25;1008.2;;;1.5;70.2
41230;BME280;26964;50.428;19.218;2024-02-26T04:53:24;1008.3;;;1.5;70.2
41230;BME280;26964;50.428;19.218;2024-02-26T04:54:24;1008.3;;;1.5;70.3
41230;BME280;26964;50.428;19.218;2024-02-26T04:55:24;1008.1;;;1.5;70.3
41230;BME280;26964;50.428;19.218;2024-02-26T04:56:23;1008.2;;;1.5;70.3
41230;BME280;26964;50.428;19.218;2024-02-26T04:57:24;1008.2;;;1.5;70.3
41230;BME280;26964;50.428;19.218;2024-02-26T04:58:24;1008.2;;;1.5;70.4
41230;BME280;26964;50.428;19.218;2024-02-26T04:59:24;1008.2;;;1.5;70.4
41230;BME280;26964;50.428;19.218;2024-02-26T05:00:24;1008.1;;;1.5;70.5
41230;BME280;26964;50.428;19.218;2024-02-26T05:01:23;1008.2;;;1.5;70.5
41230;BME280;26964;50.428;19.218;2024-02-26T05:02:24;1008.2;;;1.6;70.5
41230;BME280;26964;50.428;19.218;2024-02-26T05:03:24;1008.3;;;1.6;70.5
41230;BME280;26964;50.428;19.218;2024-02-26T05:04:23;1008.2;;;1.6;70.5
41230;BME280;26964;50.428;19.218;2024-02-26T05:05:24;1008.2;;;1.6;70.6
41230;BME280;26964;50.428;19.218;2024-02-26T05:06:23;1008.2;;;1.7;70.5
41230;BME280;26964;50.428;19.218;2024-02-26T05:07:23;1008.2;;;1.7;70.5
41230;BME280;26964;50.428;19.218;2024-02-26T05:08:25;1008.2;;;1.7;70.6
41230;BME280;26964;50.428;19.218;2024-02-26T05:09:29;1008.1;;;1.7;70.6
41230;BME280;26964;50.428;19.218;2024-02-26T05:10:24;1008.2;;;1.8;70.5
41230;BME280;26964;50.428;19.218;2024-02-26T05:11:24;1008.2;;;1.8;70.5
41230;BME280;26964;50.428;19.218;2024-02-26T05:12:23;1008.2;;;1.8;70.5
41230;BME280;26964;50.428;19.218;2024-02-26T05:13:24;1008.2;;;1.8;70.5
41230;BME280;26964;50.428;19.218;2024-02-26T05:14:24;1008.3;;;1.8;70.5
41230;BME280;26964;50.428;19.218;2024-02-26T05:15:24;1008.2;;;1.8;70.5
41230;BME280;26964;50.428;19.218;2024-02-26T05:16:24;1008.1;;;1.8;70.5
41230;BME280;26964;50.428;19.218;2024-02-26T05:17:24;1008.3;;;1.8;70.5
41230;BME280;26964;50.428;19.218;2024-02-26T05:18:24;1008.3;;;1.8;70.6
41230;BME280;26964;50.428;19.218;2024-02-26T05:19:24;1008.3;;;1.8;70.6
41230;BME280;26964;50.428;19.218;2024-02-26T05:20:24;1008.2;;;1.9;70.6
41230;BME280;26964;50.428;19.218;2024-02-26T05:21:24;1008.2;;;1.9;70.6
41230;BME280;26964;50.428;19.218;2024-02-26T05:22:24;1008.2;;;1.9;70.6
41230;BME280;26964;50.428;19.218;2024-02-26T05:23:23;1008.2;;;1.9;70.6
41230;BME280;26964;50.428;19.218;2024-02-26T05:24:24;1008.3;;;1.9;70.6
41230;BME280;26964;50.428;19.218;2024-02-26T05:25:24;1008.2;;;1.9;70.6
41230;BME280;26964;50.428;19.218;2024-02-26T05:26:23;1008.2;;;1.9;70.6
41230;BME280;26964;50.428;19.218;2024-02-26T05:27:24;1008.2;;;1.9;70.7
41230;BME280;26964;50.428;19.218;2024-02-26T05:28:23;1008.3;;;2.0;70.7
41230;BME280;26964;50.428;19.218;2024-02-26T05:29:25;1008.2;;;2.0;70.7
41230;BME280;26964;50.428;19.218;2024-02-26T05:30:24;1008.3;;;2.0;70.8
41230;BME280;26964;50.428;19.218;2024-02-26T05:31:24;1008.4;;;2.0;70.8
41230;BME280;26964;50.428;19.218;2024-02-26T05:32:24;1008.3;;;2.0;70.8
41230;BME280;26964;50.428;19.218;2024-02-26T05:33:24;1008.3;;;2.0;70.8
41230;BME280;26964;50.428;19.218;2024-02-26T05:34:23;1008.3;;;2.0;70.8
41230;BME280;26964;50.428;19.218;2024-02-26T05:35:23;1008.3;;;2.1;70.8